sensor_id;sensor_type;location;lat;lon;timestamp;pressure;altitude;pressure_sealevel;temperature;humidity
21276;BME280;36472;52.170;20.884;2023-03-03T00:01:48;100874.63;;;0.51;77.66
21276;BME280;36472;52.170;20.884;2023-03-03T00:04:17;100874.59;;;0.52;77.69
21276;BME280;36472;52.170;20.884;2023-03-03T00:06:46;100873.75;;;0.52;78.36
21276;BME280;36472;52.170;20.884;2023-03-03T00:09:15;100873.75;;;0.52;78.22
21276;BME280;36472;52.170;20.884;2023-03-03T00:11:49;100868.63;;;0.49;78.10
21276;BME280;36472;52.170;20.884;2023-03-03T00:14:27;100855.66;;;0.52;78.53
21276;BME280;36472;52.170;20.884;2023-03-03T00:17:00;100853.13;;;0.47;78.43
21276;BME280;36472;52.170;20.884;2023-03-03T00:19:30;100856.53;;;0.51;78.40
21276;BME280;36472;52.170;20.884;2023-03-03T00:22:19;100857.34;;;0.53;78.55
21276;BME280;36472;52.170;20.884;2023-03-03T00:24:50;100845.34;;;0.49;79.00
21276;BME280;36472;52.170;20.884;2023-03-03T00:27:29;100853.06;;;0.52;79.01
21276;BME280;36472;52.170;20.884;2023-03-03T00:29:59;100848.75;;;0.52;79.32
21276;BME280;36472;52.170;20.884;2023-03-03T00:32:37;100849.53;;;0.56;79.64
21276;BME280;36472;52.170;20.884;2023-03-03T00:35:25;100833.25;;;0.51;79.33
21276;BME280;36472;52.170;20.884;2023-03-03T00:37:57;100838.34;;;0.57;79.07
21276;BME280;36472;52.170;20.884;2023-03-03T00:40:34;100831.44;;;0.56;79.00
21276;BME280;36472;52.170;20.884;2023-03-03T00:43:18;100826.25;;;0.58;78.56
21276;BME280;36472;52.170;20.884;2023-03-03T00:45:50;100828.81;;;0.58;79.07
21276;BME280;36472;52.170;20.884;2023-03-03T00:48:24;100833.13;;;0.59;78.85
21276;BME280;36472;52.170;20.884;2023-03-03T00:50:56;100820.19;;;0.59;78.83
21276;BME280;36472;52.170;20.884;2023-03-03T00:53:30;100823.63;;;0.59;78.85
21276;BME280;36472;52.170;20.884;2023-03-03T00:55:59;100825.38;;;0.59;79.22
21276;BME280;36472;52.170;20.884;2023-03-03T00:58:29;100811.56;;;0.58;78.92
21276;BME280;36472;52.170;20.884;2023-03-03T01:00:58;100815.91;;;0.58;79.43
21276;BME280;36472;52.170;20.884;2023-03-03T01:03:37;100809.03;;;0.57;79.01
21276;BME280;36472;52.170;20.884;2023-03-03T01:06:06;100804.69;;;0.57;78.65
21276;BME280;36472;52.170;20.884;2023-03-03T01:08:36;100803.88;;;0.55;78.56
21276;BME280;36472;52.170;20.884;2023-03-03T01:11:11;100802.97;;;0.58;79.31
21276;BME280;36472;52.170;20.884;2023-03-03T01:13:47;100802.94;;;0.59;79.00
21276;BME280;36472;52.170;20.884;2023-03-03T01:16:17;100787.44;;;0.58;79.11
21276;BME280;36472;52.170;20.884;2023-03-03T01:18:47;100786.56;;;0.60;79.18
21276;BME280;36472;52.170;20.884;2023-03-03T01:21:16;100792.53;;;0.62;78.52
21276;BME280;36472;52.170;20.884;2023-03-03T01:23:45;100784.00;;;0.57;79.13
21276;BME280;36472;52.170;20.884;2023-03-03T01:56:19;100752.63;;;0.27;79.56
21276;BME280;36472;52.170;20.884;2023-03-03T01:58:52;100747.44;;;0.27;79.91
21276;BME280;36472;52.170;20.884;2023-03-03T02:01:27;100749.97;;;0.32;79.41
21276;BME280;36472;52.170;20.884;2023-03-03T02:03:59;100743.94;;;0.31;79.51
21276;BME280;36472;52.170;20.884;2023-03-03T02:06:33;100749.06;;;0.34;78.96
21276;BME280;36472;52.170;20.884;2023-03-03T02:09:11;100755.94;;;0.34;79.01
21276;BME280;36472;52.170;20.884;2023-03-03T02:11:49;100754.25;;;0.34;79.40
21276;BME280;36472;52.170;20.884;2023-03-03T02:14:19;100749.94;;;0.33;79.16
21276;BME280;36472;52.170;20.884;2023-03-03T02:16:48;100752.50;;;0.35;79.10
21276;BME280;36472;52.170;20.884;2023-03-03T02:19:28;100751.56;;;0.37;78.92
21276;BME280;36472;52.170;20.884;2023-03-03T02:22:01;100749.06;;;0.34;78.80
21276;BME280;36472;52.170;20.884;2023-03-03T02:24:36;100748.19;;;0.34;78.75
21276;BME280;36472;52.170;20.884;2023-03-03T02:27:08;100749.06;;;0.34;78.98
21276;BME280;36472;52.170;20.884;2023-03-03T02:29:37;100752.53;;;0.33;78.94
21276;BME280;36472;52.170;20.884;2023-03-03T02:32:06;100742.22;;;0.32;79.15
21276;BME280;36472;52.170;20.884;2023-03-03T02:34:50;100743.94;;;0.31;79.27
21276;BME280;36472;52.170;20.884;2023-03-03T02:37:19;100749.06;;;0.36;79.24
21276;BME280;36472;52.170;20.884;2023-03-03T02:39:49;100749.84;;;0.40;79.27
21276;BME280;36472;52.170;20.884;2023-03-03T02:42:24;100742.94;;;0.40;79.28
21276;BME280;36472;52.170;20.884;2023-03-03T02:44:58;100744.66;;;0.41;78.84
21276;BME280;36472;52.170;20.884;2023-03-03T02:47:26;100745.50;;;0.42;78.67
21276;BME280;36472;52.170;20.884;2023-03-03T02:49:56;100748.91;;;0.42;78.75
21276;BME280;36472;52.170;20.884;2023-03-03T02:52:24;100743.78;;;0.41;79.15
21276;BME280;36472;52.170;20.884;2023-03-03T02:54:54;100746.41;;;0.37;79.17
21276;BME280;36472;52.170;20.884;2023-03-03T02:57:24;100743.00;;;0.35;79.81
21276;BME280;36472;52.170;20.884;2023-03-03T02:59:54;100742.19;;;0.33;79.50
21276;BME280;36472;52.170;20.884;2023-03-03T03:02:23;100744.75;;;0.35;79.77
21276;BME280;36472;52.170;20.884;2023-03-03T03:04:55;100739.59;;;0.33;80.03
21276;BME280;36472;52.170;20.884;2023-03-03T03:07:25;100737.78;;;0.39;79.68
21276;BME280;36472;52.170;20.884;2023-03-03T03:09:54;100742.97;;;0.39;79.95
21276;BME280;36472;52.170;20.884;2023-03-03T03:12:24;100736.94;;;0.38;80.76
21276;BME280;36472;52.170;20.884;2023-03-03T03:14:56;100732.69;;;0.34;80.33
21276;BME280;36472;52.170;20.884;2023-03-03T03:17:26;100729.31;;;0.29;81.01
21276;BME280;36472;52.170;20.884;2023-03-03T03:19:55;100737.94;;;0.31;80.68
21276;BME280;36472;52.170;20.884;2023-03-03T03:22:24;100732.69;;;0.34;80.60
21276;BME280;36472;52.170;20.884;2023-03-03T03:24:53;100731.88;;;0.30;80.56
21276;BME280;36472;52.170;20.884;2023-03-03T03:27:24;100733.59;;;0.31;81.51
21276;BME280;36472;52.170;20.884;2023-03-03T03:29:54;100731.84;;;0.33;82.03
21276;BME280;36472;52.170;20.884;2023-03-03T03:32:23;100724.91;;;0.35;81.36
21276;BME280;36472;52.170;20.884;2023-03-03T03:34:52;100723.09;;;0.41;81.84
21276;BME280;36472;52.170;20.884;2023-03-03T03:37:22;100723.00;;;0.47;81.34
21276;BME280;36472;52.170;20.884;2023-03-03T03:39:51;100726.44;;;0.46;81.32
21276;BME280;36472;52.170;20.884;2023-03-03T03:42:20;100720.50;;;0.41;81.92
21276;BME280;36472;52.170;20.884;2023-03-03T03:44:51;100730.75;;;0.47;82.68
21276;BME280;36472;52.170;20.884;2023-03-03T03:47:20;100724.72;;;0.46;82.77
21276;BME280;36472;52.170;20.884;2023-03-03T03:49:50;100728.13;;;0.50;83.17
21276;BME280;36472;52.170;20.884;2023-03-03T03:52:19;100729.75;;;0.54;82.61
21276;BME280;36472;52.170;20.884;2023-03-03T03:54:49;100723.69;;;0.57;82.11
21276;BME280;36472;52.170;20.884;2023-03-03T03:57:18;100716.78;;;0.55;82.18
21276;BME280;36472;52.170;20.884;2023-03-03T03:59:49;100710.78;;;0.55;81.94
21276;BME280;36472;52.170;20.884;2023-03-03T04:02:19;100717.66;;;0.54;81.60
21276;BME280;36472;52.170;20.884;2023-03-03T04:04:48;100707.34;;;0.53;81.42
21276;BME280;36472;52.170;20.884;2023-03-03T04:07:17;100708.19;;;0.55;80.87
21276;BME280;36472;52.170;20.884;2023-03-03T04:09:47;100705.69;;;0.49;80.80
21276;BME280;36472;52.170;20.884;2023-03-03T04:12:16;100709.97;;;0.51;81.71
21276;BME280;36472;52.170;20.884;2023-03-03T04:14:46;100703.06;;;0.52;81.95
21276;BME280;36472;52.170;20.884;2023-03-03T04:17:16;100704.75;;;0.53;80.99
21276;BME280;36472;52.170;20.884;2023-03-03T04:19:47;100700.47;;;0.52;81.07
21276;BME280;36472;52.170;20.884;2023-03-03T04:22:16;100696.19;;;0.49;81.31
21276;BME280;36472;52.170;20.884;2023-03-03T04:24:45;100700.47;;;0.52;81.32
21276;BME280;36472;52.170;20.884;2023-03-03T04:27:17;100698.72;;;0.54;81.55
21276;BME280;36472;52.170;20.884;2023-03-03T04:29:46;100692.66;;;0.55;81.94
21276;BME280;36472;52.170;20.884;2023-03-03T04:32:15;100685.78;;;0.54;81.23
21276;BME280;36472;52.170;20.884;2023-03-03T04:34:48;100684.13;;;0.51;80.93
21276;BME280;36472;52.170;20.884;2023-03-03T04:37:34;100675.66;;;0.43;80.72
21276;BME280;36472;52.170;20.884;2023-03-03T04:40:08;100682.38;;;0.52;81.04
21276;BME280;36472;52.170;20.884;2023-03-03T04:42:39;100686.72;;;0.50;80.90
21276;BME280;36472;52.170;20.884;2023-03-03T04:45:10;100683.22;;;0.52;80.54
21276;BME280;36472;52.170;20.884;2023-03-03T04:47:40;100672.09;;;0.49;80.96
21276;BME280;36472;52.170;20.884;2023-03-03T04:50:11;100678.06;;;0.51;80.82
21276;BME280;36472;52.170;20.884;2023-03-03T04:52:40;100676.44;;;0.47;81.11
21276;BME280;36472;52.170;20.884;2023-03-03T04:55:11;100674.72;;;0.46;81.29
21276;BME280;36472;52.170;20.884;2023-03-03T04:57:40;100672.94;;;0.48;81.34
21276;BME280;36472;52.170;20.884;2023-03-03T05:00:12;100679.06;;;0.44;81.42
21276;BME280;36472;52.170;20.884;2023-03-03T05:02:42;100672.16;;;0.44;81.93
21276;BME280;36472;52.170;20.884;2023-03-03T05:05:14;100667.88;;;0.45;81.63
21276;BME280;36472;52.170;20.884;2023-03-03T05:07:43;100660.06;;;0.46;80.95
21276;BME280;36472;52.170;20.884;2023-03-03T05:10:12;100667.00;;;0.44;81.01
21276;BME280;36472;52.170;20.884;2023-03-03T05:12:41;100663.56;;;0.44;80.81
21276;BME280;36472;52.170;20.884;2023-03-03T05:15:11;100670.56;;;0.39;81.26
21276;BME280;36472;52.170;20.884;2023-03-03T05:17:40;100667.94;;;0.40;81.61
21276;BME280;36472;52.170;20.884;2023-03-03T05:20:11;100667.88;;;0.43;82.08
21276;BME280;36472;52.170;20.884;2023-03-03T05:22:42;100672.13;;;0.46;81.93
21276;BME280;36472;52.170;20.884;2023-03-03T05:25:11;100669.53;;;0.46;82.31
21276;BME280;36472;52.170;20.884;2023-03-03T05:27:40;100678.09;;;0.49;82.61
21276;BME280;36472;52.170;20.884;2023-03-03T05:30:11;100664.28;;;0.52;82.48
21276;BME280;36472;52.170;20.884;2023-03-03T05:32:40;100667.78;;;0.48;82.97
21276;BME280;36472;52.170;20.884;2023-03-03T05:35:09;100681.59;;;0.48;83.43
21276;BME280;36472;52.170;20.884;2023-03-03T05:37:38;100671.22;;;0.50;83.69
21276;BME280;36472;52.170;20.884;2023-03-03T05:40:13;100662.69;;;0.45;83.96
21276;BME280;36472;52.170;20.884;2023-03-03T05:42:42;100669.53;;;0.47;84.01
21276;BME280;36472;52.170;20.884;2023-03-03T05:45:12;100670.25;;;0.54;84.20
21276;BME280;36472;52.170;20.884;2023-03-03T05:47:41;100675.47;;;0.52;84.25
21276;BME280;36472;52.170;20.884;2023-03-03T05:50:10;100670.25;;;0.54;84.29
21276;BME280;36472;52.170;20.884;2023-03-03T05:52:39;100674.47;;;0.58;84.18
21276;BME280;36472;52.170;20.884;2023-03-03T05:55:10;100676.38;;;0.50;84.60
21276;BME280;36472;52.170;20.884;2023-03-03T05:57:40;100672.75;;;0.60;84.38
21276;BME280;36472;52.170;20.884;2023-03-03T06:00:11;100669.22;;;0.63;83.92
21276;BME280;36472;52.170;20.884;2023-03-03T06:02:41;100674.38;;;0.64;84.56
21276;BME280;36472;52.170;20.884;2023-03-03T06:05:10;100666.44;;;0.73;84.08
21276;BME280;36472;52.170;20.884;2023-03-03T06:07:40;100663.75;;;0.77;83.51
21276;BME280;36472;52.170;20.884;2023-03-03T06:10:10;100656.88;;;0.77;84.58
21276;BME280;36472;52.170;20.884;2023-03-03T06:12:42;100657.59;;;0.84;83.93
21276;BME280;36472;52.170;20.884;2023-03-03T06:15:11;100653.50;;;0.73;83.83
21276;BME280;36472;52.170;20.884;2023-03-03T06:17:41;100662.16;;;0.71;84.72
21276;BME280;36472;52.170;20.884;2023-03-03T06:20:10;100665.53;;;0.74;84.71
21276;BME280;36472;52.170;20.884;2023-03-03T06:22:39;100665.50;;;0.76;85.27
21276;BME280;36472;52.170;20.884;2023-03-03T06:25:09;100673.25;;;0.78;84.87
21276;BME280;36472;52.170;20.884;2023-03-03T06:27:38;100669.84;;;0.76;85.42
21276;BME280;36472;52.170;20.884;2023-03-03T06:30:10;100673.13;;;0.84;85.72
21276;BME280;36472;52.170;20.884;2023-03-03T06:32:40;100675.66;;;0.85;85.25
21276;BME280;36472;52.170;20.884;2023-03-03T06:35:10;100684.34;;;0.83;85.37
21276;BME280;36472;52.170;20.884;2023-03-03T06:37:39;100681.75;;;0.84;85.62
21276;BME280;36472;52.170;20.884;2023-03-03T06:40:10;100666.06;;;0.90;85.48
21276;BME280;36472;52.170;20.884;2023-03-03T06:42:39;100673.75;;;0.95;84.97
21276;BME280;36472;52.170;20.884;2023-03-03T06:45:11;100678.91;;;0.95;84.77
21276;BME280;36472;52.170;20.884;2023-03-03T06:47:40;100676.34;;;0.93;85.32
21276;BME280;36472;52.170;20.884;2023-03-03T06:50:11;100677.31;;;0.89;85.54
21276;BME280;36472;52.170;20.884;2023-03-03T06:52:40;100678.16;;;0.90;85.47
21276;BME280;36472;52.170;20.884;2023-03-03T06:55:19;100678.16;;;0.90;85.22
21276;BME280;36472;52.170;20.884;2023-03-03T06:57:50;100679.22;;;0.80;85.53
21276;BME280;36472;52.170;20.884;2023-03-03T07:00:26;100683.50;;;0.82;85.76
21276;BME280;36472;52.170;20.884;2023-03-03T07:03:00;100680.03;;;0.83;86.50
21276;BME280;36472;52.170;20.884;2023-03-03T07:05:30;100667.91;;;0.85;86.89
21276;BME280;36472;52.170;20.884;2023-03-03T07:08:00;100671.06;;;1.00;87.18
21276;BME280;36472;52.170;20.884;2023-03-03T07:10:30;100676.06;;;1.07;86.69
21276;BME280;36472;52.170;20.884;2023-03-03T07:13:16;100668.06;;;1.20;86.44
21276;BME280;36472;52.170;20.884;2023-03-03T07:15:49;100654.22;;;1.19;86.24
21276;BME280;36472;52.170;20.884;2023-03-03T07:18:35;100652.34;;;1.26;85.97
21276;BME280;36472;52.170;20.884;2023-03-03T07:21:15;100656.56;;;1.32;86.08
21276;BME280;36472;52.170;20.884;2023-03-03T07:23:47;100658.19;;;1.36;86.26
21276;BME280;36472;52.170;20.884;2023-03-03T07:26:21;100652.00;;;1.41;85.92
21276;BME280;36472;52.170;20.884;2023-03-03T07:28:54;100651.19;;;1.39;85.43
21276;BME280;36472;52.170;20.884;2023-03-03T07:31:34;100647.69;;;1.42;85.65
21276;BME280;36472;52.170;20.884;2023-03-03T07:34:17;100640.97;;;1.33;86.09
21276;BME280;36472;52.170;20.884;2023-03-03T07:36:49;100644.47;;;1.32;86.27
21276;BME280;36472;52.170;20.884;2023-03-03T07:39:30;100647.91;;;1.33;86.79
21276;BME280;36472;52.170;20.884;2023-03-03T07:42:19;100655.63;;;1.34;87.38
21276;BME280;36472;52.170;20.884;2023-03-03T07:44:56;100662.38;;;1.41;87.67
21276;BME280;36472;52.170;20.884;2023-03-03T07:47:30;100676.06;;;1.46;87.47
21276;BME280;36472;52.170;20.884;2023-03-03T07:50:15;100677.63;;;1.54;87.38
21276;BME280;36472;52.170;20.884;2023-03-03T07:52:54;100665.56;;;1.53;87.10
21276;BME280;36472;52.170;20.884;2023-03-03T07:55:33;100674.28;;;1.48;88.10
21276;BME280;36472;52.170;20.884;2023-03-03T07:58:20;100674.06;;;1.59;87.84
21276;BME280;36472;52.170;20.884;2023-03-03T08:01:31;100677.34;;;1.66;87.34
21276;BME280;36472;52.170;20.884;2023-03-03T08:04:17;100676.47;;;1.65;88.19
21276;BME280;36472;52.170;20.884;2023-03-03T08:06:50;100672.22;;;1.63;87.75
21276;BME280;36472;52.170;20.884;2023-03-03T08:09:37;100689.47;;;1.64;88.20
21276;BME280;36472;52.170;20.884;2023-03-03T08:12:38;100672.06;;;1.69;88.57
21276;BME280;36472;52.170;20.884;2023-03-03T08:15:21;100679.69;;;1.77;88.65
21276;BME280;36472;52.170;20.884;2023-03-03T08:17:53;100679.63;;;1.78;88.39
21276;BME280;36472;52.170;20.884;2023-03-03T08:20:46;100683.75;;;1.87;88.23
21276;BME280;36472;52.170;20.884;2023-03-03T08:23:18;100676.66;;;1.94;88.14
21276;BME280;36472;52.170;20.884;2023-03-03T08:25:50;100687.03;;;1.94;87.25
21276;BME280;36472;52.170;20.884;2023-03-03T08:28:20;100694.72;;;1.98;87.58
21276;BME280;36472;52.170;20.884;2023-03-03T08:30:50;100692.69;;;2.10;87.71
21276;BME280;36472;52.170;20.884;2023-03-03T08:33:35;100693.63;;;2.07;87.11
21276;BME280;36472;52.170;20.884;2023-03-03T08:36:07;100698.03;;;2.03;86.87
21276;BME280;36472;52.170;20.884;2023-03-03T08:38:37;100708.28;;;2.08;86.40
21276;BME280;36472;52.170;20.884;2023-03-03T08:41:06;100706.50;;;2.10;86.98
21276;BME280;36472;52.170;20.884;2023-03-03T08:43:35;100703.75;;;2.16;86.59
21276;BME280;36472;52.170;20.884;2023-03-03T08:46:05;100708.88;;;2.19;86.19
21276;BME280;36472;52.170;20.884;2023-03-03T08:48:37;100706.34;;;2.16;86.71
21276;BME280;36472;52.170;20.884;2023-03-03T08:51:07;100707.09;;;2.20;86.69
21276;BME280;36472;52.170;20.884;2023-03-03T08:53:36;100713.69;;;2.33;86.70
21276;BME280;36472;52.170;20.884;2023-03-03T08:56:06;100715.91;;;2.14;86.25
21276;BME280;36472;52.170;20.884;2023-03-03T08:58:35;100725.53;;;2.09;86.09
21276;BME280;36472;52.170;20.884;2023-03-03T09:01:04;100730.72;;;2.09;86.80
21276;BME280;36472;52.170;20.884;2023-03-03T09:03:33;100728.38;;;2.00;86.27
21276;BME280;36472;52.170;20.884;2023-03-03T09:06:03;100727.53;;;1.98;86.49
21276;BME280;36472;52.170;20.884;2023-03-03T09:08:33;100722.53;;;1.92;86.28
21276;BME280;36472;52.170;20.884;2023-03-03T09:11:08;100721.78;;;1.86;86.27
21276;BME280;36472;52.170;20.884;2023-03-03T09:13:38;100734.63;;;1.90;86.40
21276;BME280;36472;52.170;20.884;2023-03-03T09:16:13;100734.03;;;1.80;86.31
21276;BME280;36472;52.170;20.884;2023-03-03T09:18:43;100725.31;;;1.82;86.76
21276;BME280;36472;52.170;20.884;2023-03-03T09:21:22;100724.50;;;1.80;86.46
21276;BME280;36472;52.170;20.884;2023-03-03T09:23:56;100720.03;;;1.87;86.67
21276;BME280;36472;52.170;20.884;2023-03-03T09:26:45;100692.41;;;1.86;85.94
21276;BME280;36472;52.170;20.884;2023-03-03T09:29:25;100710.50;;;1.87;85.92
21276;BME280;36472;52.170;20.884;2023-03-03T09:31:57;100693.47;;;1.77;85.98
21276;BME280;36472;52.170;20.884;2023-03-03T09:34:39;100695.75;;;1.90;85.95
21276;BME280;36472;52.170;20.884;2023-03-03T09:37:21;100685.19;;;1.99;85.30
21276;BME280;36472;52.170;20.884;2023-03-03T09:39:54;100675.66;;;1.99;85.50
21276;BME280;36472;52.170;20.884;2023-03-03T09:42:57;100681.56;;;2.04;85.28
21276;BME280;36472;52.170;20.884;2023-03-03T09:45:48;100690.03;;;2.11;84.42
21276;BME280;36472;52.170;20.884;2023-03-03T09:48:43;100687.09;;;1.91;84.92
21276;BME280;36472;52.170;20.884;2023-03-03T09:51:58;100687.97;;;1.90;84.94
21276;BME280;36472;52.170;20.884;2023-03-03T09:54:53;100690.50;;;1.93;85.65
21276;BME280;36472;52.170;20.884;2023-03-03T09:57:43;100679.00;;;2.03;85.67
21276;BME280;36472;52.170;20.884;2023-03-03T10:00:49;100677.19;;;2.06;85.17
21276;BME280;36472;52.170;20.884;2023-03-03T10:03:55;100677.41;;;1.99;85.33
21276;BME280;36472;52.170;20.884;2023-03-03T10:06:33;100666.16;;;2.00;85.31
21276;BME280;36472;52.170;20.884;2023-03-03T10:09:35;100671.38;;;1.98;85.12
21276;BME280;36472;52.170;20.884;2023-03-03T10:12:19;100669.31;;;2.11;85.42
21276;BME280;36472;52.170;20.884;2023-03-03T10:15:17;100673.47;;;2.17;85.01
21276;BME280;36472;52.170;20.884;2023-03-03T10:17:51;100661.59;;;2.08;84.56
21276;BME280;36472;52.170;20.884;2023-03-03T10:20:44;100658.16;;;2.08;84.86
21276;BME280;36472;52.170;20.884;2023-03-03T10:23:34;100659.88;;;2.09;85.14
21276;BME280;36472;52.170;20.884;2023-03-03T10:26:22;100670.25;;;2.09;84.94
21276;BME280;36472;52.170;20.884;2023-03-03T10:29:29;100674.44;;;2.13;85.40
21276;BME280;36472;52.170;20.884;2023-03-03T10:32:32;100678.75;;;2.14;84.63
21276;BME280;36472;52.170;20.884;2023-03-03T10:35:59;100670.84;;;2.18;84.84
21276;BME280;36472;52.170;20.884;2023-03-03T10:38:45;100677.66;;;2.22;84.88
21276;BME280;36472;52.170;20.884;2023-03-03T10:41:39;100675.88;;;2.24;84.23
21276;BME280;36472;52.170;20.884;2023-03-03T10:44:35;100687.81;;;2.30;84.32
21276;BME280;36472;52.170;20.884;2023-03-03T10:47:50;100683.63;;;2.26;83.73
21276;BME280;36472;52.170;20.884;2023-03-03T10:50:30;100691.28;;;2.31;83.80
21276;BME280;36472;52.170;20.884;2023-03-03T10:53:25;100696.78;;;2.18;83.98
21276;BME280;36472;52.170;20.884;2023-03-03T10:56:16;100694.28;;;2.15;84.71
21276;BME280;36472;52.170;20.884;2023-03-03T10:59:04;100700.50;;;2.08;84.23
21276;BME280;36472;52.170;20.884;2023-03-03T11:01:51;100693.72;;;2.02;84.97
21276;BME280;36472;52.170;20.884;2023-03-03T11:04:45;100695.41;;;2.05;85.07
21276;BME280;36472;52.170;20.884;2023-03-03T11:07:25;100683.25;;;2.07;84.49
21276;BME280;36472;52.170;20.884;2023-03-03T11:10:14;100681.50;;;2.08;84.54
21276;BME280;36472;52.170;20.884;2023-03-03T11:12:58;100675.69;;;1.98;84.61
21276;BME280;36472;52.170;20.884;2023-03-03T11:15:56;100690.25;;;2.03;84.80
21276;BME280;36472;52.170;20.884;2023-03-03T11:18:42;100691.94;;;2.04;84.35
21276;BME280;36472;52.170;20.884;2023-03-03T11:21:26;100693.81;;;1.99;84.37
21276;BME280;36472;52.170;20.884;2023-03-03T11:24:14;100706.19;;;1.88;84.82
21276;BME280;36472;52.170;20.884;2023-03-03T11:27:17;100695.81;;;1.88;84.91
21276;BME280;36472;52.170;20.884;2023-03-03T11:30:02;100696.00;;;1.80;84.81
21276;BME280;36472;52.170;20.884;2023-03-03T11:32:45;100684.75;;;1.81;85.22
21276;BME280;36472;52.170;20.884;2023-03-03T11:35:25;100675.25;;;1.80;84.82
21276;BME280;36472;52.170;20.884;2023-03-03T11:38:14;100675.91;;;1.90;84.82
21276;BME280;36472;52.170;20.884;2023-03-03T11:40:52;100662.97;;;1.89;84.29
21276;BME280;36472;52.170;20.884;2023-03-03T11:43:29;100663.78;;;1.91;84.10
21276;BME280;36472;52.170;20.884;2023-03-03T11:46:08;100660.31;;;1.92;83.60
21276;BME280;36472;52.170;20.884;2023-03-03T11:48:49;100662.03;;;1.91;84.12
21276;BME280;36472;52.170;20.884;2023-03-03T11:51:32;100660.03;;;2.02;83.91
21276;BME280;36472;52.170;20.884;2023-03-03T11:54:14;100657.72;;;1.92;83.52
21276;BME280;36472;52.170;20.884;2023-03-03T11:56:47;100652.69;;;1.85;83.78
21276;BME280;36472;52.170;20.884;2023-03-03T11:59:47;100658.53;;;1.94;83.97
21276;BME280;36472;52.170;20.884;2023-03-03T12:05:56;100667.53;;;1.79;84.04
21276;BME280;36472;52.170;20.884;2023-03-03T12:09:06;100667.69;;;1.73;84.74
21276;BME280;36472;52.170;20.884;2023-03-03T12:11:46;100665.00;;;1.76;84.98
21276;BME280;36472;52.170;20.884;2023-03-03T12:14:44;100672.75;;;1.77;84.56
21276;BME280;36472;52.170;20.884;2023-03-03T12:17:38;100672.88;;;1.73;84.68
21276;BME280;36472;52.170;20.884;2023-03-03T12:20:21;100669.38;;;1.74;84.88
21276;BME280;36472;52.170;20.884;2023-03-03T12:23:25;100664.91;;;1.80;84.94
21276;BME280;36472;52.170;20.884;2023-03-03T12:26:07;100661.66;;;1.71;84.46
21276;BME280;36472;52.170;20.884;2023-03-03T12:28:47;100667.41;;;1.83;84.96
21276;BME280;36472;52.170;20.884;2023-03-03T12:31:38;100668.44;;;1.78;84.58
21276;BME280;36472;52.170;20.884;2023-03-03T12:34:20;100666.09;;;1.67;84.66
21276;BME280;36472;52.170;20.884;2023-03-03T12:37:11;100666.09;;;1.67;84.67
21276;BME280;36472;52.170;20.884;2023-03-03T12:39:57;100662.72;;;1.63;84.85
21276;BME280;36472;52.170;20.884;2023-03-03T12:42:51;100665.34;;;1.62;85.34
21276;BME280;36472;52.170;20.884;2023-03-03T12:45:43;100658.97;;;1.75;84.96
21276;BME280;36472;52.170;20.884;2023-03-03T12:48:18;100661.56;;;1.75;85.36
21276;BME280;36472;52.170;20.884;2023-03-03T12:51:00;100662.41;;;1.76;85.04
21276;BME280;36472;52.170;20.884;2023-03-03T12:53:48;100668.53;;;1.73;84.48
21276;BME280;36472;52.170;20.884;2023-03-03T12:56:31;100657.47;;;1.66;84.72
21276;BME280;36472;52.170;20.884;2023-03-03T12:59:14;100665.41;;;1.59;85.08
21276;BME280;36472;52.170;20.884;2023-03-03T13:02:01;100657.56;;;1.62;85.14
21276;BME280;36472;52.170;20.884;2023-03-03T13:04:41;100656.81;;;1.57;85.32
21276;BME280;36472;52.170;20.884;2023-03-03T13:07:18;100660.19;;;1.60;85.12
21276;BME280;36472;52.170;20.884;2023-03-03T13:10:08;100660.19;;;1.60;84.98
21276;BME280;36472;52.170;20.884;2023-03-03T13:12:45;100651.69;;;1.55;85.00
21276;BME280;36472;52.170;20.884;2023-03-03T13:15:24;100660.09;;;1.65;85.63
21276;BME280;36472;52.170;20.884;2023-03-03T13:18:18;100656.53;;;1.69;85.56
21276;BME280;36472;52.170;20.884;2023-03-03T13:20:55;100659.78;;;1.77;84.82
21276;BME280;36472;52.170;20.884;2023-03-03T13:23:42;100660.69;;;1.76;84.63
21276;BME280;36472;52.170;20.884;2023-03-03T13:26:21;100664.19;;;1.74;84.49
21276;BME280;36472;52.170;20.884;2023-03-03T13:29:03;100657.47;;;1.66;84.52
21276;BME280;36472;52.170;20.884;2023-03-03T13:31:39;100652.34;;;1.63;84.69
21276;BME280;36472;52.170;20.884;2023-03-03T13:34:24;100652.22;;;1.70;84.17
21276;BME280;36472;52.170;20.884;2023-03-03T13:37:07;100650.81;;;1.56;84.54
21276;BME280;36472;52.170;20.884;2023-03-03T13:39:55;100647.13;;;1.65;84.85
21276;BME280;36472;52.170;20.884;2023-03-03T13:42:32;100638.53;;;1.64;84.79
21276;BME280;36472;52.170;20.884;2023-03-03T13:45:17;100630.00;;;1.59;84.62
21276;BME280;36472;52.170;20.884;2023-03-03T13:48:00;100634.25;;;1.62;84.80
21276;BME280;36472;52.170;20.884;2023-03-03T13:50:41;100635.22;;;1.58;84.67
21276;BME280;36472;52.170;20.884;2023-03-03T13:53:34;100629.72;;;1.70;84.93
21276;BME280;36472;52.170;20.884;2023-03-03T13:56:27;100628.84;;;1.71;84.70
21276;BME280;36472;52.170;20.884;2023-03-03T13:59:11;100628.13;;;1.66;84.06
21276;BME280;36472;52.170;20.884;2023-03-03T14:01:56;100627.38;;;1.61;84.51
21276;BME280;36472;52.170;20.884;2023-03-03T14:04:44;100621.25;;;1.63;84.69
21276;BME280;36472;52.170;20.884;2023-03-03T14:07:26;100628.75;;;1.74;84.83
21276;BME280;36472;52.170;20.884;2023-03-03T14:10:02;100623.47;;;1.79;84.42
21276;BME280;36472;52.170;20.884;2023-03-03T14:12:44;100625.84;;;1.88;84.35
21276;BME280;36472;52.170;20.884;2023-03-03T14:15:21;100626.63;;;1.92;84.09
21276;BME280;36472;52.170;20.884;2023-03-03T14:18:20;100621.66;;;1.82;84.24